createdAt,value
2023-05-12T00:00:15.020Z,51.56
2023-05-12T00:01:20.015Z,51.95
2023-05-12T00:02:22.516Z,51.84
2023-05-12T00:03:24.896Z,51.92
2023-05-12T00:04:27.435Z,52.14
2023-05-12T00:05:30.633Z,52.12
2023-05-12T00:06:32.821Z,52.19
2023-05-12T00:07:35.343Z,52.25
2023-05-12T00:08:37.727Z,52.49
2023-05-12T00:09:42.006Z,52.46
2023-05-12T00:10:44.194Z,52.06
2023-05-12T00:11:48.616Z,52.48
2023-05-12T00:12:50.913Z,52.46
2023-05-12T00:13:54.996Z,52.82
2023-05-12T00:14:57.916Z,53.16
2023-05-12T00:16:00.220Z,52.96
2023-05-12T00:17:06.867Z,52.75
2023-05-12T00:18:09.369Z,52.74
2023-05-12T00:19:12.124Z,53.00
2023-05-12T00:20:14.694Z,52.95
2023-05-12T00:21:17.063Z,52.57
2023-05-12T00:22:19.325Z,52.90
2023-05-12T00:23:22.771Z,52.78
2023-05-12T00:24:25.794Z,52.62
2023-05-12T00:25:28.009Z,52.69
2023-05-12T00:26:30.439Z,52.76
2023-05-12T00:27:33.226Z,52.67
2023-05-12T00:28:35.936Z,53.12
2023-05-12T00:29:38.378Z,53.70
2023-05-12T00:30:40.661Z,53.22
2023-05-12T00:31:43.076Z,52.81
2023-05-12T00:32:45.610Z,52.91
2023-05-12T00:33:47.880Z,53.12
2023-05-12T00:34:50.891Z,53.19
2023-05-12T00:35:53.088Z,53.09
2023-05-12T00:36:55.457Z,53.24
2023-05-12T00:37:57.824Z,53.53
2023-05-12T00:39:00.441Z,53.48
2023-05-12T00:40:03.438Z,53.57
2023-05-12T00:41:06.010Z,53.22
2023-05-12T00:42:08.478Z,52.94
2023-05-12T00:43:12.253Z,53.01
2023-05-12T00:44:14.880Z,53.21
2023-05-12T00:45:17.238Z,53.25
2023-05-12T00:46:19.899Z,52.80
2023-05-12T00:47:22.400Z,52.88
2023-05-12T00:48:24.825Z,53.00
2023-05-12T00:49:27.763Z,53.20
2023-05-12T00:50:30.186Z,53.44
2023-05-12T00:51:33.020Z,53.55
2023-05-12T00:52:35.752Z,53.70
2023-05-12T00:53:48.510Z,54.63
2023-05-12T00:54:52.346Z,54.47
2023-05-12T00:55:55.671Z,54.00
2023-05-12T00:56:58.384Z,53.97
2023-05-12T00:58:00.844Z,53.90
2023-05-12T00:59:03.845Z,53.97
2023-05-12T01:00:08.940Z,54.07
2023-05-12T01:01:14.430Z,53.90
2023-05-12T01:02:17.047Z,54.31
2023-05-12T01:03:19.583Z,54.77
2023-05-12T01:04:22.245Z,54.69
2023-05-12T01:05:31.958Z,54.78
2023-05-12T01:06:52.167Z,54.96
2023-05-12T01:07:54.630Z,54.94
2023-05-12T01:08:57.727Z,54.71
2023-05-12T01:09:59.932Z,54.52
2023-05-12T01:11:04.002Z,54.52
2023-05-12T01:12:06.727Z,54.15
2023-05-12T01:13:10.117Z,54.52
2023-05-12T01:14:12.329Z,54.41
2023-05-12T01:15:14.926Z,54.03
2023-05-12T01:16:23.005Z,53.95
2023-05-12T01:17:32.240Z,54.49
2023-05-12T01:18:37.822Z,55.10
2023-05-12T01:19:49.456Z,54.68
2023-05-12T01:20:53.724Z,54.64
2023-05-12T01:21:56.658Z,54.39
2023-05-12T01:22:59.724Z,54.65
2023-05-12T01:24:08.516Z,54.57
2023-05-12T01:25:13.523Z,54.43
2023-05-12T01:26:16.542Z,54.37
2023-05-12T01:27:20.716Z,54.27
2023-05-12T01:28:23.566Z,54.47
2023-05-12T01:29:26.180Z,54.46
2023-05-12T01:30:30.255Z,54.54
2023-05-12T01:31:33.438Z,54.51
2023-05-12T01:32:36.918Z,54.79
2023-05-12T01:33:41.990Z,54.69
2023-05-12T01:34:45.626Z,54.83
2023-05-12T01:35:48.061Z,54.12
2023-05-12T01:36:50.684Z,54.00
2023-05-12T01:37:52.993Z,54.03
2023-05-12T01:38:55.495Z,53.91
2023-05-12T01:39:57.951Z,53.39
2023-05-12T01:41:00.162Z,53.49
2023-05-12T01:42:03.901Z,53.24
2023-05-12T01:43:06.132Z,53.71
2023-05-12T01:44:09.226Z,53.67
2023-05-12T01:45:12.041Z,53.67
2023-05-12T01:46:14.438Z,53.94
2023-05-12T01:47:17.974Z,54.46
2023-05-12T01:48:27.133Z,54.49
2023-05-12T01:49:31.827Z,54.43
2023-05-12T01:50:34.672Z,54.51
2023-05-12T01:51:38.137Z,54.57
2023-05-12T01:52:40.949Z,54.77
2023-05-12T01:53:48.208Z,54.95
2023-05-12T01:54:51.493Z,54.57
2023-05-12T01:56:16.444Z,54.76
2023-05-12T01:57:19.668Z,55.26
2023-05-12T01:58:22.830Z,55.30
2023-05-12T01:59:25.722Z,54.97
2023-05-12T02:00:28.847Z,55.06
2023-05-12T02:01:33.561Z,54.82
2023-05-12T02:02:36.545Z,55.12
2023-05-12T02:03:39.269Z,54.63
2023-05-12T02:04:47.096Z,54.43
2023-05-12T02:05:49.396Z,54.73
2023-05-12T02:06:52.113Z,54.84
2023-05-12T02:07:54.726Z,54.84
2023-05-12T02:08:57.894Z,54.38
2023-05-12T02:10:00.462Z,54.37
2023-05-12T02:11:09.168Z,54.25
2023-05-12T02:12:11.861Z,54.53
2023-05-12T02:13:14.166Z,54.96
2023-05-12T02:14:17.054Z,55.09
2023-05-12T02:15:19.324Z,54.98
2023-05-12T02:16:22.962Z,55.56
2023-05-12T02:17:25.342Z,55.77
2023-05-12T02:18:27.921Z,55.57
2023-05-12T02:19:30.484Z,55.87
2023-05-12T02:20:34.211Z,55.80
2023-05-12T02:21:37.274Z,56.21
2023-05-12T02:22:39.610Z,56.02
2023-05-12T02:23:41.838Z,55.99
2023-05-12T02:24:44.391Z,56.42
2023-05-12T02:25:46.633Z,56.99
2023-05-12T02:26:49.001Z,56.98
2023-05-12T02:27:51.230Z,56.73
2023-05-12T02:28:56.612Z,56.31
2023-05-12T02:29:59.213Z,56.27
2023-05-12T02:31:01.459Z,56.45
2023-05-12T02:32:05.829Z,56.38
2023-05-12T02:33:08.354Z,56.68
2023-05-12T02:34:10.830Z,57.31
2023-05-12T02:35:13.892Z,56.92
2023-05-12T02:36:16.128Z,57.15
2023-05-12T02:37:18.322Z,57.14
2023-05-12T02:38:20.851Z,57.16
2023-05-12T02:39:23.766Z,57.13
2023-05-12T02:40:26.105Z,57.23
2023-05-12T02:41:28.358Z,56.61
2023-05-12T02:42:35.475Z,56.98
2023-05-12T02:43:38.163Z,56.53
2023-05-12T02:44:40.784Z,56.47
2023-05-12T02:45:43.097Z,56.53
2023-05-12T02:46:45.433Z,56.63
2023-05-12T02:47:48.561Z,56.79
2023-05-12T02:48:50.866Z,56.16
2023-05-12T02:49:55.744Z,56.21
2023-05-12T02:50:57.995Z,55.33
2023-05-12T02:52:00.195Z,55.24
2023-05-12T02:53:02.656Z,55.12
2023-05-12T02:54:05.524Z,55.35
2023-05-12T02:55:08.199Z,55.92
2023-05-12T02:56:10.396Z,56.16
2023-05-12T02:57:12.582Z,56.58
2023-05-12T02:58:15.015Z,56.48
2023-05-12T02:59:17.259Z,56.46
2023-05-12T03:00:20.313Z,56.31
2023-05-12T03:01:22.758Z,56.38
2023-05-12T03:02:25.208Z,56.22
2023-05-12T03:03:27.537Z,56.34
2023-05-12T03:04:29.913Z,56.57
2023-05-12T03:05:32.468Z,56.32
2023-05-12T03:06:34.652Z,56.87
2023-05-12T03:07:37.013Z,56.88
2023-05-12T03:08:39.519Z,56.24
2023-05-12T03:09:41.929Z,56.01
2023-05-12T03:10:44.794Z,56.23
2023-05-12T03:11:46.994Z,56.39
2023-05-12T03:12:49.153Z,56.31
2023-05-12T03:13:51.668Z,56.23
2023-05-12T03:14:53.965Z,56.07
2023-05-12T03:15:57.328Z,56.00
2023-05-12T03:16:59.559Z,56.20
2023-05-12T03:18:01.979Z,56.18
2023-05-12T03:19:05.624Z,56.11
2023-05-12T03:20:08.693Z,56.28
2023-05-12T03:21:13.171Z,56.32
2023-05-12T03:22:15.474Z,56.32
2023-05-12T03:23:17.701Z,56.67
2023-05-12T03:24:20.031Z,56.71
2023-05-12T03:25:22.672Z,57.01
2023-05-12T03:26:24.900Z,56.86
2023-05-12T03:27:27.181Z,57.17
2023-05-12T03:28:29.630Z,57.36
2023-05-12T03:29:31.933Z,57.19
2023-05-12T03:30:34.405Z,56.94
2023-05-12T03:31:36.984Z,57.02
2023-05-12T03:32:40.535Z,57.04
2023-05-12T03:33:45.070Z,56.71
2023-05-12T03:34:47.381Z,57.01
2023-05-12T03:35:51.199Z,57.16
2023-05-12T03:36:53.703Z,57.32
2023-05-12T03:37:56.244Z,57.34
2023-05-12T03:38:58.695Z,57.24
2023-05-12T03:40:00.927Z,56.94
2023-05-12T03:41:07.060Z,57.09
2023-05-12T03:42:10.439Z,57.42
2023-05-12T03:43:12.959Z,57.10
2023-05-12T03:44:15.358Z,57.21
2023-05-12T03:45:18.007Z,57.12
2023-05-12T03:46:21.035Z,57.04
2023-05-12T03:47:23.709Z,56.92
2023-05-12T03:48:26.206Z,57.03
2023-05-12T03:49:28.442Z,56.76
2023-05-12T03:50:30.791Z,56.74
2023-05-12T03:51:33.171Z,57.47
2023-05-12T03:52:38.290Z,57.53
2023-05-12T03:53:45.144Z,57.12
2023-05-12T03:54:48.469Z,57.05
2023-05-12T03:55:51.187Z,57.33
2023-05-12T03:56:54.155Z,57.47
2023-05-12T03:57:56.715Z,57.07
2023-05-12T03:58:59.067Z,56.83
2023-05-12T04:00:02.211Z,56.53
2023-05-12T04:01:15.122Z,56.41
2023-05-12T04:02:17.438Z,56.51
2023-05-12T04:03:20.529Z,56.40
2023-05-12T04:04:22.760Z,56.28
2023-05-12T04:05:25.372Z,56.75
2023-05-12T04:06:27.975Z,57.13
2023-05-12T04:07:30.188Z,56.89
2023-05-12T04:08:32.453Z,56.88
2023-05-12T04:09:35.775Z,56.79
2023-05-12T04:10:40.420Z,56.32
2023-05-12T04:11:43.390Z,56.96
2023-05-12T04:12:45.650Z,56.70
2023-05-12T04:13:48.287Z,56.82
2023-05-12T04:14:51.086Z,56.71
2023-05-12T04:15:57.102Z,56.53
2023-05-12T04:16:59.579Z,56.07
2023-05-12T04:18:03.191Z,56.39
2023-05-12T04:19:05.751Z,57.09
2023-05-12T04:20:08.600Z,57.31
2023-05-12T04:21:11.029Z,57.33
2023-05-12T04:22:13.445Z,56.76
2023-05-12T04:23:16.713Z,57.08
2023-05-12T04:24:19.250Z,57.35
2023-05-12T04:25:21.942Z,57.59
2023-05-12T04:26:24.245Z,57.78
2023-05-12T04:27:27.292Z,58.26
2023-05-12T04:28:29.529Z,57.85
2023-05-12T04:29:31.957Z,58.05
2023-05-12T04:30:34.178Z,57.93
2023-05-12T04:31:36.502Z,57.98
2023-05-12T04:32:40.498Z,57.90
2023-05-12T04:33:42.972Z,57.86
2023-05-12T04:34:45.626Z,59.23
2023-05-12T04:35:48.035Z,57.35
2023-05-12T04:36:51.857Z,57.15
2023-05-12T04:37:54.885Z,58.32
2023-05-12T04:38:57.377Z,57.49
2023-05-12T04:39:59.741Z,57.56
2023-05-12T04:41:02.359Z,57.67
2023-05-12T04:42:06.079Z,57.73
2023-05-12T04:44:00.212Z,57.84
2023-05-12T04:44:32.159Z,58.13
2023-05-12T04:45:35.550Z,57.78
2023-05-12T04:46:38.064Z,57.55
2023-05-12T04:47:41.278Z,57.23
2023-05-12T04:48:44.452Z,57.42
2023-05-12T04:49:46.926Z,57.77
2023-05-12T04:50:50.120Z,57.82
2023-05-12T04:51:53.059Z,57.73
2023-05-12T04:52:55.499Z,57.85
2023-05-12T04:53:58.051Z,57.53
2023-05-12T04:55:01.277Z,57.40
2023-05-12T04:56:03.960Z,57.02
2023-05-12T04:57:12.027Z,57.43
2023-05-12T04:58:14.881Z,57.16
2023-05-12T04:59:17.841Z,57.35
2023-05-12T05:00:22.724Z,57.39
2023-05-12T05:01:25.218Z,57.22
2023-05-12T05:02:28.241Z,56.78
2023-05-12T05:03:30.931Z,56.32
2023-05-12T05:04:33.616Z,56.09
2023-05-12T05:05:35.856Z,55.87
2023-05-12T05:06:38.376Z,56.07
2023-05-12T05:07:41.544Z,56.04
2023-05-12T05:08:43.937Z,56.53
2023-05-12T05:09:46.980Z,56.16
2023-05-12T05:10:49.247Z,56.04
2023-05-12T05:11:51.643Z,56.06
2023-05-12T05:12:54.237Z,56.18
2023-05-12T05:13:56.568Z,55.85
2023-05-12T05:14:58.929Z,55.43
2023-05-12T05:16:01.686Z,55.38
2023-05-12T05:17:04.088Z,55.02
2023-05-12T05:18:06.603Z,54.85
2023-05-12T05:19:20.022Z,54.93
2023-05-12T05:20:29.278Z,54.39
2023-05-12T05:21:32.851Z,54.35
2023-05-12T05:22:35.445Z,54.28
2023-05-12T05:23:37.761Z,54.56
2023-05-12T05:24:41.912Z,54.33
2023-05-12T05:25:44.506Z,54.13
2023-05-12T05:26:46.856Z,53.83
2023-05-12T05:27:49.549Z,53.23
2023-05-12T05:28:55.108Z,53.30
2023-05-12T05:29:59.391Z,52.92
2023-05-12T05:31:01.621Z,52.94
2023-05-12T05:32:04.551Z,52.79
2023-05-12T05:33:07.602Z,52.58
2023-05-12T05:34:09.893Z,51.99
2023-05-12T05:35:13.318Z,52.05
2023-05-12T05:36:23.079Z,51.91
2023-05-12T05:37:25.656Z,52.44
2023-05-12T05:38:30.657Z,52.43
2023-05-12T05:39:32.918Z,52.44
2023-05-12T05:40:48.832Z,52.26
2023-05-12T05:41:54.142Z,51.48
2023-05-12T05:42:56.585Z,51.30
2023-05-12T05:43:59.270Z,50.73
2023-05-12T05:45:01.535Z,50.50
2023-05-12T05:46:04.028Z,50.13
2023-05-12T05:47:07.210Z,49.35
2023-05-12T05:48:10.290Z,47.94
2023-05-12T05:49:13.918Z,47.18
2023-05-12T05:50:17.016Z,46.32
2023-05-12T05:51:19.213Z,45.71
2023-05-12T05:52:22.705Z,44.81
2023-05-12T05:53:25.112Z,43.89
2023-05-12T05:54:28.467Z,43.75
2023-05-12T05:55:30.708Z,43.23
2023-05-12T05:56:33.378Z,42.88
2023-05-12T05:57:36.060Z,42.75
2023-05-12T05:58:38.655Z,42.01
2023-05-12T05:59:40.818Z,41.28
2023-05-12T06:00:43.938Z,40.46
2023-05-12T06:01:46.276Z,39.64
2023-05-12T06:02:48.866Z,40.09
2023-05-12T06:03:54.513Z,39.78
2023-05-12T06:04:57.614Z,39.75
2023-05-12T06:05:59.933Z,39.96
2023-05-12T06:07:02.260Z,39.49
2023-05-12T06:08:05.403Z,39.98
2023-05-12T06:09:09.591Z,38.96
2023-05-12T06:10:12.100Z,38.56
2023-05-12T06:11:15.884Z,39.07
2023-05-12T06:12:19.715Z,39.61
2023-05-12T06:13:22.011Z,38.98
2023-05-12T06:14:24.433Z,38.39
2023-05-12T06:15:26.652Z,38.40
2023-05-12T06:16:29.318Z,37.86
2023-05-12T06:17:32.851Z,37.96
2023-05-12T06:18:38.059Z,37.79
2023-05-12T06:19:40.784Z,37.72
2023-05-12T06:20:43.512Z,38.52
2023-05-12T06:21:45.760Z,38.45
2023-05-12T06:22:48.560Z,38.65
2023-05-12T06:23:52.445Z,38.35
2023-05-12T06:24:54.877Z,36.87
2023-05-12T06:25:57.116Z,37.32
2023-05-12T06:26:59.493Z,36.66
2023-05-12T06:28:08.461Z,35.99
2023-05-12T06:29:11.009Z,36.82
2023-05-12T06:30:16.015Z,36.57
2023-05-12T06:31:18.620Z,36.50
2023-05-12T06:32:23.023Z,35.21
2023-05-12T06:33:25.453Z,35.63
2023-05-12T06:34:27.969Z,36.35
2023-05-12T06:35:30.138Z,36.20
2023-05-12T06:36:32.764Z,35.84
2023-05-12T06:37:36.318Z,35.83
2023-05-12T06:38:38.782Z,36.40
2023-05-12T06:39:41.265Z,36.61
2023-05-12T06:40:43.523Z,36.22
2023-05-12T06:41:45.731Z,35.61
2023-05-12T06:42:55.622Z,35.40
2023-05-12T06:44:02.393Z,35.02
2023-05-12T06:45:05.917Z,34.73
2023-05-12T06:46:08.724Z,34.74
2023-05-12T06:47:11.496Z,35.35
2023-05-12T06:48:14.081Z,36.48
2023-05-12T06:49:16.291Z,35.80
2023-05-12T06:50:18.765Z,35.02
2023-05-12T06:51:21.463Z,34.38
2023-05-12T06:52:24.017Z,34.36
2023-05-12T06:53:26.431Z,33.72
2023-05-12T06:54:29.265Z,33.90
2023-05-12T06:55:34.387Z,33.63
2023-05-12T06:56:36.640Z,32.73
2023-05-12T06:57:38.860Z,33.20
2023-05-12T06:58:41.234Z,34.10
2023-05-12T06:59:43.421Z,34.45
2023-05-12T07:00:45.818Z,35.81
2023-05-12T07:01:48.048Z,36.17
2023-05-12T07:02:50.579Z,35.91
2023-05-12T07:03:52.962Z,37.07
2023-05-12T07:04:55.555Z,36.61
2023-05-12T07:05:57.983Z,35.13
2023-05-12T07:07:00.232Z,34.42
2023-05-12T07:08:02.737Z,33.84
2023-05-12T07:09:04.997Z,33.37
2023-05-12T07:10:08.429Z,33.55
2023-05-12T07:11:10.774Z,33.70
2023-05-12T07:12:13.029Z,34.04
2023-05-12T07:13:15.307Z,34.44
2023-05-12T07:14:17.762Z,34.38
2023-05-12T07:15:20.278Z,34.33
2023-05-12T07:16:22.793Z,34.13
2023-05-12T07:17:25.074Z,33.93
2023-05-12T07:18:27.385Z,33.39
2023-05-12T07:19:31.170Z,33.69
2023-05-12T07:20:33.571Z,33.81
2023-05-12T07:21:36.842Z,32.70
2023-05-12T07:22:39.335Z,32.51
2023-05-12T07:23:41.966Z,32.52
2023-05-12T07:24:44.487Z,33.37
2023-05-12T07:25:47.269Z,33.50
2023-05-12T07:26:49.511Z,32.81
2023-05-12T07:27:52.033Z,32.86
2023-05-12T07:28:54.273Z,32.40
2023-05-12T07:29:56.582Z,32.78
2023-05-12T07:30:59.772Z,31.93
2023-05-12T07:32:02.157Z,31.48
2023-05-12T07:33:04.659Z,30.92
2023-05-12T07:34:07.450Z,31.39
2023-05-12T07:35:10.236Z,31.85
2023-05-12T07:36:12.868Z,31.22
2023-05-12T07:37:15.248Z,30.99
2023-05-12T07:38:17.651Z,31.20
2023-05-12T07:39:23.731Z,30.46
2023-05-12T07:40:26.244Z,30.40
2023-05-12T07:41:28.868Z,29.90
2023-05-12T07:42:31.354Z,31.41
2023-05-12T07:43:33.553Z,31.91
2023-05-12T07:44:36.281Z,31.12
2023-05-12T07:45:38.679Z,30.54
2023-05-12T07:46:40.918Z,30.37
2023-05-12T07:47:43.192Z,31.11
2023-05-12T07:48:46.076Z,31.68
2023-05-12T07:49:48.597Z,31.43
2023-05-12T07:50:51.025Z,32.58
2023-05-12T07:51:53.319Z,33.28
2023-05-12T07:52:55.669Z,33.20
2023-05-12T07:53:58.212Z,32.90
2023-05-12T07:55:00.674Z,32.26
2023-05-12T07:56:02.952Z,31.14
2023-05-12T07:57:05.581Z,31.41
2023-05-12T07:58:08.097Z,31.80
2023-05-12T07:59:10.866Z,31.26
2023-05-12T08:00:14.375Z,30.74
2023-05-12T08:01:16.802Z,30.73
2023-05-12T08:02:20.712Z,30.29
2023-05-12T08:03:23.011Z,31.41
2023-05-12T08:04:25.619Z,30.61
2023-05-12T08:05:28.167Z,30.19
2023-05-12T08:06:38.990Z,30.17
2023-05-12T08:07:43.657Z,30.50
2023-05-12T08:08:46.394Z,30.59
2023-05-12T08:09:48.787Z,29.97
2023-05-12T08:10:50.996Z,30.22
2023-05-12T08:11:53.445Z,31.15
2023-05-12T08:12:56.685Z,31.11
2023-05-12T08:13:58.899Z,30.95
2023-05-12T08:15:01.434Z,30.58
2023-05-12T08:16:04.106Z,30.27
2023-05-12T08:17:07.026Z,29.97
2023-05-12T08:18:09.465Z,29.33
2023-05-12T08:19:13.099Z,28.95
2023-05-12T08:20:15.645Z,28.68
2023-05-12T08:21:18.231Z,28.84
2023-05-12T08:22:20.436Z,28.86
2023-05-12T08:23:24.231Z,28.96
2023-05-12T08:24:27.354Z,28.93
2023-05-12T08:25:30.732Z,28.89
2023-05-12T08:26:33.322Z,29.20
2023-05-12T08:27:35.587Z,29.70
2023-05-12T08:28:37.861Z,29.36
2023-05-12T08:29:40.275Z,29.40
2023-05-12T08:30:42.950Z,29.12
2023-05-12T08:31:45.683Z,28.15
2023-05-12T08:32:48.096Z,28.08
2023-05-12T08:34:02.725Z,28.16
2023-05-12T08:35:12.027Z,28.82
2023-05-12T08:36:14.539Z,29.14
2023-05-12T08:37:17.066Z,29.32
2023-05-12T08:38:19.594Z,29.27
2023-05-12T08:39:22.065Z,28.73
2023-05-12T08:40:25.735Z,28.29
2023-05-12T08:41:44.855Z,27.77
2023-05-12T08:43:01.650Z,27.52
2023-05-12T08:44:05.435Z,27.76
2023-05-12T08:45:08.262Z,27.66
2023-05-12T08:46:12.432Z,27.15
2023-05-12T08:47:19.019Z,27.28
2023-05-12T08:48:22.138Z,27.40
2023-05-12T08:49:29.393Z,27.80
2023-05-12T08:50:35.468Z,27.79
2023-05-12T08:51:40.657Z,28.44
2023-05-12T08:52:43.141Z,28.12
2023-05-12T08:53:49.206Z,28.20
2023-05-12T08:54:56.082Z,28.48
2023-05-12T08:57:10.059Z,28.05
2023-05-12T08:57:28.177Z,28.56
2023-05-12T08:58:40.975Z,28.07
2023-05-12T08:59:44.713Z,27.12
2023-05-12T09:00:48.176Z,26.98
2023-05-12T09:01:51.235Z,26.85
2023-05-12T09:02:55.752Z,26.87
2023-05-12T09:03:58.358Z,26.71
2023-05-12T09:05:00.682Z,26.75
2023-05-12T09:06:05.583Z,27.33
2023-05-12T09:07:07.976Z,26.75
2023-05-12T09:08:10.932Z,27.39
2023-05-12T09:09:15.616Z,27.19
2023-05-12T09:10:34.617Z,27.02
2023-05-12T09:11:38.341Z,26.58
2023-05-12T09:12:42.766Z,26.96
2023-05-12T09:13:49.615Z,26.98
2023-05-12T09:14:59.878Z,27.03
2023-05-12T09:16:04.331Z,27.59
2023-05-12T09:17:07.090Z,27.61
2023-05-12T09:18:09.398Z,28.26
2023-05-12T09:19:11.788Z,28.16
2023-05-12T09:20:27.898Z,27.82
2023-05-12T09:21:34.394Z,28.22
2023-05-12T09:22:36.777Z,27.87
2023-05-12T09:23:39.494Z,28.17
2023-05-12T09:24:41.808Z,28.02
2023-05-12T09:25:45.004Z,27.73
2023-05-12T09:26:49.973Z,27.37
2023-05-12T09:27:56.590Z,27.89
2023-05-12T09:29:06.842Z,27.81
2023-05-12T09:30:09.410Z,28.32
2023-05-12T09:31:19.305Z,27.51
2023-05-12T09:32:33.122Z,27.59
2023-05-12T09:33:36.823Z,27.33
2023-05-12T09:34:41.637Z,27.63
2023-05-12T09:35:45.856Z,27.50
2023-05-12T09:37:01.284Z,27.91
2023-05-12T09:38:07.753Z,27.69
2023-05-12T09:39:10.648Z,28.46
2023-05-12T09:40:13.999Z,28.36
2023-05-12T09:41:23.414Z,28.54
2023-05-12T09:42:29.818Z,28.86
2023-05-12T09:43:32.160Z,29.14
2023-05-12T09:44:34.441Z,28.98
2023-05-12T09:45:39.183Z,28.66
2023-05-12T09:46:41.464Z,28.88
2023-05-12T09:47:44.956Z,28.55
2023-05-12T09:48:48.243Z,28.01
2023-05-12T09:49:52.178Z,28.44
2023-05-12T09:50:54.592Z,27.82
2023-05-12T09:51:58.797Z,28.18
2023-05-12T09:53:01.709Z,28.14
2023-05-12T09:54:05.731Z,28.26
2023-05-12T09:55:12.050Z,27.72
2023-05-12T09:56:15.569Z,27.18
2023-05-12T09:57:21.058Z,27.46
2023-05-12T09:58:27.371Z,27.72
2023-05-12T09:59:34.232Z,28.01
2023-05-12T10:00:52.381Z,28.51
2023-05-12T10:02:04.720Z,28.89
2023-05-12T10:03:17.785Z,29.02
2023-05-12T10:04:20.843Z,28.99
2023-05-12T10:05:24.233Z,28.84
2023-05-12T10:06:37.676Z,29.06
2023-05-12T10:07:40.994Z,28.75
2023-05-12T10:08:51.278Z,28.47
2023-05-12T10:09:59.400Z,28.43
2023-05-12T10:11:05.371Z,28.14
2023-05-12T10:12:08.894Z,28.12
2023-05-12T10:13:14.297Z,28.41
2023-05-12T10:14:17.342Z,28.26
2023-05-12T10:15:21.236Z,28.28
2023-05-12T10:16:24.303Z,28.08
2023-05-12T10:17:26.929Z,27.95
2023-05-12T10:18:30.270Z,27.93
2023-05-12T10:19:33.026Z,27.90
2023-05-12T10:20:36.384Z,28.10
2023-05-12T10:21:39.427Z,28.71
2023-05-12T10:22:42.467Z,28.17
2023-05-12T10:23:45.730Z,28.25
2023-05-12T10:24:49.137Z,27.98
2023-05-12T10:25:56.778Z,28.48
2023-05-12T10:27:01.158Z,28.25
2023-05-12T10:28:04.562Z,28.58
2023-05-12T10:29:07.025Z,28.84
2023-05-12T10:30:11.022Z,29.78
2023-05-12T10:31:14.128Z,29.72
2023-05-12T10:32:16.534Z,29.60
2023-05-12T10:33:19.164Z,29.66
2023-05-12T10:34:21.639Z,29.63
2023-05-12T10:35:33.971Z,29.76
2023-05-12T10:36:58.332Z,29.50
2023-05-12T10:38:27.330Z,29.55
2023-05-12T10:39:30.869Z,29.58
2023-05-12T10:40:33.527Z,29.36
2023-05-12T10:41:35.830Z,29.04
2023-05-12T10:42:41.540Z,29.23
2023-05-12T10:43:48.273Z,29.19
2023-05-12T10:44:52.138Z,30.17
2023-05-12T10:46:13.095Z,30.12
2023-05-12T10:47:15.469Z,30.63
2023-05-12T10:48:17.649Z,30.54
2023-05-12T10:49:20.172Z,29.77
2023-05-12T10:50:29.028Z,30.07
2023-05-12T10:51:33.286Z,30.16
2023-05-12T10:52:35.503Z,30.44
2023-05-12T10:53:49.336Z,30.87
2023-05-12T10:55:02.361Z,30.53
2023-05-12T10:56:06.304Z,30.23
2023-05-12T10:57:21.206Z,30.57
2023-05-12T10:58:24.098Z,31.10
2023-05-12T10:59:29.887Z,30.91
2023-05-12T11:00:33.053Z,30.23
2023-05-12T11:01:36.576Z,30.19
2023-05-12T11:02:51.066Z,30.01
2023-05-12T11:03:58.859Z,29.76
2023-05-12T11:05:05.106Z,29.46
2023-05-12T11:06:08.696Z,30.50
2023-05-12T11:07:14.094Z,30.44
2023-05-12T11:08:17.954Z,30.31
2023-05-12T11:09:21.787Z,29.84
2023-05-12T11:10:24.781Z,30.36
2023-05-12T11:11:29.633Z,30.04
2023-05-12T11:12:35.352Z,30.71
2023-05-12T11:13:38.247Z,30.71
2023-05-12T11:14:42.196Z,31.06
2023-05-12T11:15:45.261Z,30.51
2023-05-12T11:16:47.571Z,30.43
2023-05-12T11:17:49.830Z,30.44
2023-05-12T11:19:05.380Z,30.78
2023-05-12T11:20:10.132Z,30.81
2023-05-12T11:21:12.391Z,30.89
2023-05-12T11:22:17.913Z,31.26
2023-05-12T11:23:29.536Z,31.73
2023-05-12T11:24:31.939Z,31.62
2023-05-12T11:25:34.525Z,31.66
2023-05-12T11:26:36.757Z,31.65
2023-05-12T11:27:44.741Z,32.09
2023-05-12T11:28:47.231Z,31.86
2023-05-12T11:29:59.828Z,31.87
2023-05-12T11:31:02.408Z,31.36
2023-05-12T11:32:04.940Z,31.61
2023-05-12T11:33:07.391Z,31.76
2023-05-12T11:34:12.782Z,32.08
2023-05-12T11:35:17.637Z,32.07
2023-05-12T11:36:21.779Z,30.96
2023-05-12T11:37:24.052Z,30.47
2023-05-12T11:38:28.275Z,30.20
2023-05-12T11:39:32.408Z,29.76
2023-05-12T11:40:40.263Z,30.31
2023-05-12T11:41:43.183Z,30.79
2023-05-12T11:42:48.391Z,30.50
2023-05-12T11:43:51.035Z,30.76
2023-05-12T11:44:55.393Z,30.79
2023-05-12T11:45:58.068Z,30.13
2023-05-12T11:47:10.778Z,30.46
2023-05-12T11:48:14.018Z,30.32
2023-05-12T11:49:16.511Z,30.33
2023-05-12T11:50:23.828Z,30.42
2023-05-12T11:51:27.559Z,30.83
2023-05-12T11:52:29.954Z,30.52
2023-05-12T11:53:33.629Z,30.39
2023-05-12T11:54:35.837Z,30.34
2023-05-12T11:55:38.111Z,30.86
2023-05-12T11:56:48.560Z,30.71
2023-05-12T11:58:26.765Z,31.28
2023-05-12T11:59:34.007Z,30.50
2023-05-12T12:00:36.305Z,30.00
2023-05-12T12:01:48.756Z,30.13
2023-05-12T12:02:51.260Z,30.33
2023-05-12T12:03:55.669Z,30.04
2023-05-12T12:04:58.244Z,29.46
2023-05-12T12:06:02.986Z,29.93
2023-05-12T12:07:05.881Z,30.03
2023-05-12T12:08:15.891Z,30.05
2023-05-12T12:09:18.466Z,29.95
2023-05-12T12:10:20.949Z,30.77
2023-05-12T12:11:28.223Z,30.70
2023-05-12T12:12:30.472Z,30.60
2023-05-12T12:13:32.957Z,30.79
2023-05-12T12:14:38.267Z,30.75
2023-05-12T12:15:40.623Z,29.95
2023-05-12T12:16:42.812Z,29.28
2023-05-12T12:17:45.266Z,29.59
2023-05-12T12:18:47.714Z,29.91
2023-05-12T12:19:50.109Z,29.55
2023-05-12T12:20:52.340Z,29.62
2023-05-12T12:21:55.609Z,29.33
2023-05-12T12:22:57.803Z,28.91
2023-05-12T12:24:00.255Z,28.38
2023-05-12T12:25:03.652Z,28.09
2023-05-12T12:26:06.057Z,28.82
2023-05-12T12:27:08.442Z,29.02
2023-05-12T12:28:11.096Z,29.34
2023-05-12T12:29:13.692Z,29.72
2023-05-12T12:30:17.244Z,29.49
2023-05-12T12:31:19.435Z,30.00
2023-05-12T12:32:21.758Z,30.29
2023-05-12T12:33:24.452Z,30.27
2023-05-12T12:34:26.725Z,30.29
2023-05-12T12:35:29.074Z,30.28
2023-05-12T12:36:32.910Z,30.18
2023-05-12T12:37:35.247Z,30.30
2023-05-12T12:38:38.131Z,30.36
2023-05-12T12:39:40.647Z,30.05
2023-05-12T12:40:43.104Z,29.44
2023-05-12T12:41:48.107Z,29.11
2023-05-12T12:42:50.647Z,29.43
2023-05-12T12:43:53.424Z,29.17
2023-05-12T12:44:55.983Z,29.01
2023-05-12T12:45:58.335Z,28.80
2023-05-12T12:47:00.678Z,27.88
2023-05-12T12:48:03.252Z,28.07
2023-05-12T12:49:05.804Z,28.43
2023-05-12T12:50:10.139Z,28.53
2023-05-12T12:51:12.753Z,28.24
2023-05-12T12:52:15.037Z,28.36
2023-05-12T12:53:17.343Z,28.91
2023-05-12T12:54:19.664Z,28.68
2023-05-12T12:55:22.292Z,28.22
2023-05-12T12:56:25.778Z,28.23
2023-05-12T12:57:28.055Z,27.36
2023-05-12T12:58:30.444Z,27.56
2023-05-12T12:59:33.183Z,27.62
2023-05-12T13:00:36.379Z,27.99
2023-05-12T13:01:38.743Z,27.76
2023-05-12T13:02:41.285Z,28.04
2023-05-12T13:03:43.869Z,28.28
2023-05-12T13:04:46.220Z,27.95
2023-05-12T13:05:48.711Z,27.79
2023-05-12T13:06:50.917Z,27.73
2023-05-12T13:07:53.531Z,27.31
2023-05-12T13:08:56.492Z,27.35
2023-05-12T13:09:59.172Z,27.21
2023-05-12T13:11:01.852Z,27.10
2023-05-12T13:12:04.465Z,27.06
2023-05-12T13:13:07.276Z,27.45
2023-05-12T13:14:10.403Z,27.55
2023-05-12T13:15:12.889Z,27.98
2023-05-12T13:16:15.555Z,28.07
2023-05-12T13:17:17.791Z,28.43
2023-05-12T13:18:20.771Z,28.36
2023-05-12T13:19:23.081Z,28.10
2023-05-12T13:20:25.313Z,27.73
2023-05-12T13:21:28.031Z,27.34
2023-05-12T13:22:30.299Z,26.71
2023-05-12T13:23:32.689Z,26.90
2023-05-12T13:24:34.963Z,26.85
2023-05-12T13:25:37.237Z,27.33
2023-05-12T13:26:40.112Z,26.89
2023-05-12T13:27:42.465Z,26.52
2023-05-12T13:28:44.691Z,26.43
2023-05-12T13:29:49.887Z,26.28
2023-05-12T13:30:52.712Z,26.36
2023-05-12T13:31:55.011Z,26.07
2023-05-12T13:32:57.332Z,26.09
2023-05-12T13:33:59.530Z,26.29
2023-05-12T13:35:02.336Z,26.20
2023-05-12T13:36:04.886Z,25.88
2023-05-12T13:37:07.445Z,25.97
2023-05-12T13:38:10.854Z,25.86
2023-05-12T13:39:13.141Z,25.89
2023-05-12T13:40:15.658Z,26.08
2023-05-12T13:41:18.301Z,26.04
2023-05-12T13:42:22.388Z,26.13